sensor_id;sensor_type;location;lat;lon;timestamp;P1;durP1;ratioP1;P2;durP2;ratioP2
20865;SDS011;10593;48.398;10.698;2024-03-07T00:00:00;7.30;;;6.70;;
20865;SDS011;10593;48.398;10.698;2024-03-07T00:02:42;7.53;;;6.83;;
20865;SDS011;10593;48.398;10.698;2024-03-07T00:05:16;8.13;;;7.47;;
20865;SDS011;10593;48.398;10.698;2024-03-07T00:07:44;8.53;;;7.83;;
20865;SDS011;10593;48.398;10.698;2024-03-07T00:10:10;8.17;;;7.57;;
20865;SDS011;10593;48.398;10.698;2024-03-07T00:12:39;8.10;;;7.50;;
20865;SDS011;10593;48.398;10.698;2024-03-07T00:15:08;8.47;;;7.77;;
20865;SDS011;10593;48.398;10.698;2024-03-07T00:17:38;8.60;;;7.87;;
20865;SDS011;10593;48.398;10.698;2024-03-07T00:20:04;8.13;;;7.53;;
20865;SDS011;10593;48.398;10.698;2024-03-07T00:22:39;8.53;;;7.83;;
20865;SDS011;10593;48.398;10.698;2024-03-07T00:25:06;8.27;;;7.53;;
20865;SDS011;10593;48.398;10.698;2024-03-07T00:27:34;8.03;;;7.33;;
20865;SDS011;10593;48.398;10.698;2024-03-07T00:30:04;8.20;;;7.50;;
20865;SDS011;10593;48.398;10.698;2024-03-07T00:32:33;7.83;;;7.13;;
20865;SDS011;10593;48.398;10.698;2024-03-07T00:35:01;8.47;;;7.77;;
20865;SDS011;10593;48.398;10.698;2024-03-07T00:37:30;8.30;;;7.63;;
20865;SDS011;10593;48.398;10.698;2024-03-07T00:39:56;8.03;;;7.33;;
20865;SDS011;10593;48.398;10.698;2024-03-07T00:42:22;8.70;;;8.00;;
20865;SDS011;10593;48.398;10.698;2024-03-07T00:44:48;7.70;;;7.10;;
20865;SDS011;10593;48.398;10.698;2024-03-07T00:47:17;8.23;;;7.50;;
20865;SDS011;10593;48.398;10.698;2024-03-07T00:49:43;9.50;;;8.67;;
20865;SDS011;10593;48.398;10.698;2024-03-07T00:52:11;8.43;;;7.70;;
20865;SDS011;10593;48.398;10.698;2024-03-07T00:54:38;8.97;;;8.17;;
20865;SDS011;10593;48.398;10.698;2024-03-07T00:57:04;8.97;;;8.17;;
20865;SDS011;10593;48.398;10.698;2024-03-07T00:59:30;8.33;;;7.63;;
20865;SDS011;10593;48.398;10.698;2024-03-07T01:01:56;9.07;;;8.27;;
20865;SDS011;10593;48.398;10.698;2024-03-07T01:04:21;9.43;;;8.63;;
20865;SDS011;10593;48.398;10.698;2024-03-07T01:06:47;9.20;;;8.33;;
20865;SDS011;10593;48.398;10.698;2024-03-07T01:09:13;9.67;;;8.87;;
20865;SDS011;10593;48.398;10.698;2024-03-07T01:11:42;9.40;;;8.50;;
20865;SDS011;10593;48.398;10.698;2024-03-07T01:14:12;9.47;;;8.57;;
20865;SDS011;10593;48.398;10.698;2024-03-07T01:16:39;10.13;;;9.13;;
20865;SDS011;10593;48.398;10.698;2024-03-07T01:19:04;9.77;;;8.87;;
20865;SDS011;10593;48.398;10.698;2024-03-07T01:21:33;9.30;;;8.50;;
20865;SDS011;10593;48.398;10.698;2024-03-07T01:24:00;10.37;;;9.47;;
20865;SDS011;10593;48.398;10.698;2024-03-07T01:26:29;9.60;;;8.70;;
20865;SDS011;10593;48.398;10.698;2024-03-07T01:28:56;10.83;;;9.83;;
20865;SDS011;10593;48.398;10.698;2024-03-07T01:31:23;10.33;;;9.33;;
20865;SDS011;10593;48.398;10.698;2024-03-07T01:33:49;11.10;;;10.00;;
20865;SDS011;10593;48.398;10.698;2024-03-07T01:36:15;9.80;;;8.93;;
20865;SDS011;10593;48.398;10.698;2024-03-07T01:38:41;10.10;;;9.20;;
20865;SDS011;10593;48.398;10.698;2024-03-07T01:41:07;9.87;;;8.97;;
20865;SDS011;10593;48.398;10.698;2024-03-07T01:43:33;11.50;;;10.30;;
20865;SDS011;10593;48.398;10.698;2024-03-07T01:45:59;10.60;;;9.60;;
20865;SDS011;10593;48.398;10.698;2024-03-07T01:48:28;10.83;;;9.90;;
20865;SDS011;10593;48.398;10.698;2024-03-07T01:50:57;10.30;;;9.30;;
20865;SDS011;10593;48.398;10.698;2024-03-07T01:53:24;10.47;;;9.50;;
20865;SDS011;10593;48.398;10.698;2024-03-07T01:55:52;11.10;;;10.00;;
20865;SDS011;10593;48.398;10.698;2024-03-07T01:58:21;10.73;;;9.73;;
20865;SDS011;10593;48.398;10.698;2024-03-07T02:00:49;11.57;;;10.37;;
20865;SDS011;10593;48.398;10.698;2024-03-07T02:03:14;12.20;;;11.03;;
20865;SDS011;10593;48.398;10.698;2024-03-07T02:05:41;13.07;;;11.77;;
20865;SDS011;10593;48.398;10.698;2024-03-07T02:08:07;12.53;;;11.33;;
20865;SDS011;10593;48.398;10.698;2024-03-07T02:10:33;13.77;;;12.40;;
20865;SDS011;10593;48.398;10.698;2024-03-07T02:12:58;12.83;;;11.47;;
20865;SDS011;10593;48.398;10.698;2024-03-07T02:15:25;14.17;;;12.77;;
20865;SDS011;10593;48.398;10.698;2024-03-07T02:17:52;14.53;;;13.03;;
20865;SDS011;10593;48.398;10.698;2024-03-07T02:20:18;13.53;;;12.23;;
20865;SDS011;10593;48.398;10.698;2024-03-07T02:22:43;13.70;;;12.40;;
20865;SDS011;10593;48.398;10.698;2024-03-07T02:25:09;14.53;;;13.07;;
20865;SDS011;10593;48.398;10.698;2024-03-07T02:27:35;16.23;;;14.63;;
20865;SDS011;10593;48.398;10.698;2024-03-07T02:30:03;16.10;;;14.43;;
20865;SDS011;10593;48.398;10.698;2024-03-07T02:32:30;16.90;;;15.23;;
20865;SDS011;10593;48.398;10.698;2024-03-07T02:34:57;16.23;;;14.53;;
20865;SDS011;10593;48.398;10.698;2024-03-07T02:37:23;15.40;;;13.90;;
20865;SDS011;10593;48.398;10.698;2024-03-07T02:39:48;15.63;;;14.03;;
20865;SDS011;10593;48.398;10.698;2024-03-07T02:42:14;15.47;;;13.90;;
20865;SDS011;10593;48.398;10.698;2024-03-07T02:44:40;16.40;;;14.70;;
20865;SDS011;10593;48.398;10.698;2024-03-07T02:47:06;17.27;;;15.57;;
20865;SDS011;10593;48.398;10.698;2024-03-07T02:49:32;17.23;;;15.40;;
20865;SDS011;10593;48.398;10.698;2024-03-07T02:51:58;17.57;;;15.77;;
20865;SDS011;10593;48.398;10.698;2024-03-07T02:54:23;18.53;;;16.73;;
20865;SDS011;10593;48.398;10.698;2024-03-07T02:56:49;18.63;;;16.70;;
20865;SDS011;10593;48.398;10.698;2024-03-07T02:59:15;18.13;;;16.23;;
20865;SDS011;10593;48.398;10.698;2024-03-07T03:01:41;18.10;;;16.20;;
20865;SDS011;10593;48.398;10.698;2024-03-07T03:04:07;18.60;;;16.83;;
20865;SDS011;10593;48.398;10.698;2024-03-07T03:06:33;19.63;;;17.63;;
20865;SDS011;10593;48.398;10.698;2024-03-07T03:08:58;18.37;;;16.53;;
20865;SDS011;10593;48.398;10.698;2024-03-07T03:11:24;19.93;;;17.87;;
20865;SDS011;10593;48.398;10.698;2024-03-07T03:13:53;19.60;;;17.50;;
20865;SDS011;10593;48.398;10.698;2024-03-07T03:16:18;20.70;;;18.57;;
20865;SDS011;10593;48.398;10.698;2024-03-07T03:18:44;19.40;;;17.40;;
20865;SDS011;10593;48.398;10.698;2024-03-07T03:21:10;19.10;;;17.20;;
20865;SDS011;10593;48.398;10.698;2024-03-07T03:23:36;20.50;;;18.40;;
20865;SDS011;10593;48.398;10.698;2024-03-07T03:26:02;20.10;;;18.10;;
20865;SDS011;10593;48.398;10.698;2024-03-07T03:28:28;20.47;;;18.27;;
20865;SDS011;10593;48.398;10.698;2024-03-07T03:30:54;20.00;;;17.90;;
20865;SDS011;10593;48.398;10.698;2024-03-07T03:33:20;19.10;;;17.30;;
20865;SDS011;10593;48.398;10.698;2024-03-07T03:35:46;18.47;;;16.60;;
20865;SDS011;10593;48.398;10.698;2024-03-07T03:38:12;19.33;;;17.37;;
20865;SDS011;10593;48.398;10.698;2024-03-07T03:40:38;21.03;;;18.30;;
20865;SDS011;10593;48.398;10.698;2024-03-07T03:43:04;19.50;;;17.50;;
20865;SDS011;10593;48.398;10.698;2024-03-07T03:45:30;19.03;;;17.03;;
20865;SDS011;10593;48.398;10.698;2024-03-07T03:47:59;18.07;;;16.30;;
20865;SDS011;10593;48.398;10.698;2024-03-07T03:50:25;19.00;;;17.00;;
20865;SDS011;10593;48.398;10.698;2024-03-07T03:52:51;19.03;;;16.97;;
20865;SDS011;10593;48.398;10.698;2024-03-07T03:55:17;18.80;;;16.97;;
20865;SDS011;10593;48.398;10.698;2024-03-07T03:57:44;19.17;;;17.27;;
20865;SDS011;10593;48.398;10.698;2024-03-07T04:00:13;19.67;;;17.57;;
20865;SDS011;10593;48.398;10.698;2024-03-07T04:02:42;20.10;;;17.63;;
20865;SDS011;10593;48.398;10.698;2024-03-07T04:05:12;19.40;;;17.50;;
20865;SDS011;10593;48.398;10.698;2024-03-07T04:07:39;19.33;;;17.40;;
20865;SDS011;10593;48.398;10.698;2024-03-07T04:10:06;20.53;;;18.50;;
20865;SDS011;10593;48.398;10.698;2024-03-07T04:12:36;20.53;;;18.40;;
20865;SDS011;10593;48.398;10.698;2024-03-07T04:15:05;20.70;;;18.30;;
20865;SDS011;10593;48.398;10.698;2024-03-07T04:17:37;19.83;;;17.73;;
20865;SDS011;10593;48.398;10.698;2024-03-07T04:20:03;19.83;;;17.77;;
20865;SDS011;10593;48.398;10.698;2024-03-07T04:22:31;19.37;;;17.40;;
20865;SDS011;10593;48.398;10.698;2024-03-07T04:24:58;21.10;;;18.87;;
20865;SDS011;10593;48.398;10.698;2024-03-07T04:27:24;21.77;;;19.40;;
20865;SDS011;10593;48.398;10.698;2024-03-07T04:29:51;20.00;;;17.90;;
20865;SDS011;10593;48.398;10.698;2024-03-07T04:32:17;20.63;;;18.53;;
20865;SDS011;10593;48.398;10.698;2024-03-07T04:34:43;20.47;;;18.40;;
20865;SDS011;10593;48.398;10.698;2024-03-07T04:37:10;20.90;;;17.97;;
20865;SDS011;10593;48.398;10.698;2024-03-07T04:39:36;20.87;;;18.67;;
20865;SDS011;10593;48.398;10.698;2024-03-07T04:42:06;21.07;;;18.87;;
20865;SDS011;10593;48.398;10.698;2024-03-07T04:44:34;20.40;;;18.17;;
20865;SDS011;10593;48.398;10.698;2024-03-07T04:47:05;20.23;;;18.13;;
20865;SDS011;10593;48.398;10.698;2024-03-07T04:49:31;21.00;;;18.80;;
20865;SDS011;10593;48.398;10.698;2024-03-07T04:51:59;20.83;;;18.83;;
20865;SDS011;10593;48.398;10.698;2024-03-07T04:54:26;21.73;;;19.50;;
20865;SDS011;10593;48.398;10.698;2024-03-07T04:56:54;21.83;;;19.63;;
20865;SDS011;10593;48.398;10.698;2024-03-07T04:59:21;21.37;;;19.20;;
20865;SDS011;10593;48.398;10.698;2024-03-07T05:01:48;22.70;;;19.60;;
20865;SDS011;10593;48.398;10.698;2024-03-07T05:04:15;20.70;;;18.60;;
20865;SDS011;10593;48.398;10.698;2024-03-07T05:06:42;20.47;;;18.37;;
20865;SDS011;10593;48.398;10.698;2024-03-07T05:09:09;20.73;;;18.70;;
20865;SDS011;10593;48.398;10.698;2024-03-07T05:11:48;20.23;;;18.13;;
20865;SDS011;10593;48.398;10.698;2024-03-07T05:14:16;20.90;;;18.70;;
20865;SDS011;10593;48.398;10.698;2024-03-07T05:16:42;22.57;;;19.87;;
20865;SDS011;10593;48.398;10.698;2024-03-07T05:19:08;20.20;;;18.03;;
20865;SDS011;10593;48.398;10.698;2024-03-07T05:21:34;22.37;;;19.03;;
20865;SDS011;10593;48.398;10.698;2024-03-07T05:24:03;22.73;;;19.00;;
20865;SDS011;10593;48.398;10.698;2024-03-07T05:26:30;20.67;;;18.07;;
20865;SDS011;10593;48.398;10.698;2024-03-07T05:29:05;21.73;;;19.23;;
20865;SDS011;10593;48.398;10.698;2024-03-07T05:31:38;22.30;;;19.77;;
20865;SDS011;10593;48.398;10.698;2024-03-07T05:34:12;20.97;;;18.83;;
20865;SDS011;10593;48.398;10.698;2024-03-07T05:36:38;20.57;;;18.47;;
20865;SDS011;10593;48.398;10.698;2024-03-07T05:39:11;21.77;;;19.47;;
20865;SDS011;10593;48.398;10.698;2024-03-07T05:41:39;21.97;;;19.67;;
20865;SDS011;10593;48.398;10.698;2024-03-07T05:44:06;22.33;;;19.83;;
20865;SDS011;10593;48.398;10.698;2024-03-07T05:46:37;21.17;;;18.90;;
20865;SDS011;10593;48.398;10.698;2024-03-07T05:49:10;21.30;;;19.00;;
20865;SDS011;10593;48.398;10.698;2024-03-07T05:51:35;22.00;;;19.87;;
20865;SDS011;10593;48.398;10.698;2024-03-07T05:54:01;21.13;;;18.83;;
20865;SDS011;10593;48.398;10.698;2024-03-07T05:56:31;21.33;;;18.63;;
20865;SDS011;10593;48.398;10.698;2024-03-07T05:59:00;21.53;;;19.23;;
20865;SDS011;10593;48.398;10.698;2024-03-07T06:01:32;22.13;;;19.83;;
20865;SDS011;10593;48.398;10.698;2024-03-07T06:03:59;20.27;;;18.17;;
20865;SDS011;10593;48.398;10.698;2024-03-07T06:06:26;20.73;;;18.60;;
20865;SDS011;10593;48.398;10.698;2024-03-07T06:08:52;22.33;;;19.30;;
20865;SDS011;10593;48.398;10.698;2024-03-07T06:11:18;22.40;;;20.00;;
20865;SDS011;10593;48.398;10.698;2024-03-07T06:13:47;21.20;;;19.03;;
20865;SDS011;10593;48.398;10.698;2024-03-07T06:16:13;22.03;;;19.83;;
20865;SDS011;10593;48.398;10.698;2024-03-07T06:18:42;21.50;;;19.33;;
20865;SDS011;10593;48.398;10.698;2024-03-07T06:21:10;23.70;;;20.10;;
20865;SDS011;10593;48.398;10.698;2024-03-07T06:23:35;23.57;;;21.03;;
20865;SDS011;10593;48.398;10.698;2024-03-07T06:26:01;22.63;;;20.03;;
20865;SDS011;10593;48.398;10.698;2024-03-07T06:28:37;24.03;;;20.67;;
20865;SDS011;10593;48.398;10.698;2024-03-07T06:31:04;21.33;;;19.17;;
20865;SDS011;10593;48.398;10.698;2024-03-07T06:33:32;21.53;;;19.23;;
20865;SDS011;10593;48.398;10.698;2024-03-07T06:35:58;21.20;;;19.00;;
20865;SDS011;10593;48.398;10.698;2024-03-07T06:38:26;21.83;;;19.53;;
20865;SDS011;10593;48.398;10.698;2024-03-07T06:40:52;21.87;;;19.67;;
20865;SDS011;10593;48.398;10.698;2024-03-07T06:43:18;23.30;;;20.47;;
20865;SDS011;10593;48.398;10.698;2024-03-07T06:45:43;21.60;;;19.10;;
20865;SDS011;10593;48.398;10.698;2024-03-07T06:48:11;21.73;;;19.43;;
20865;SDS011;10593;48.398;10.698;2024-03-07T06:50:39;22.57;;;19.83;;
20865;SDS011;10593;48.398;10.698;2024-03-07T06:53:05;22.90;;;20.27;;
20865;SDS011;10593;48.398;10.698;2024-03-07T06:55:34;22.70;;;20.37;;
20865;SDS011;10593;48.398;10.698;2024-03-07T06:58:00;23.17;;;20.67;;
20865;SDS011;10593;48.398;10.698;2024-03-07T07:00:29;21.33;;;19.10;;
20865;SDS011;10593;48.398;10.698;2024-03-07T07:02:58;22.67;;;19.27;;
20865;SDS011;10593;48.398;10.698;2024-03-07T07:05:24;21.70;;;19.53;;
20865;SDS011;10593;48.398;10.698;2024-03-07T07:07:50;21.93;;;19.63;;
20865;SDS011;10593;48.398;10.698;2024-03-07T07:10:16;22.30;;;19.30;;
20865;SDS011;10593;48.398;10.698;2024-03-07T07:12:46;20.87;;;18.70;;
20865;SDS011;10593;48.398;10.698;2024-03-07T07:15:14;24.03;;;20.40;;
20865;SDS011;10593;48.398;10.698;2024-03-07T07:17:43;23.53;;;20.97;;
20865;SDS011;10593;48.398;10.698;2024-03-07T07:20:14;22.53;;;20.23;;
20865;SDS011;10593;48.398;10.698;2024-03-07T07:22:41;22.20;;;19.90;;
20865;SDS011;10593;48.398;10.698;2024-03-07T07:25:07;21.97;;;19.70;;
20865;SDS011;10593;48.398;10.698;2024-03-07T07:27:49;22.03;;;19.73;;
20865;SDS011;10593;48.398;10.698;2024-03-07T07:30:17;22.03;;;19.73;;
20865;SDS011;10593;48.398;10.698;2024-03-07T07:32:46;21.30;;;19.13;;
20865;SDS011;10593;48.398;10.698;2024-03-07T07:35:12;22.43;;;20.13;;
20865;SDS011;10593;48.398;10.698;2024-03-07T07:40:04;23.03;;;20.73;;
20865;SDS011;10593;48.398;10.698;2024-03-07T07:42:38;21.93;;;19.63;;
20865;SDS011;10593;48.398;10.698;2024-03-07T07:45:05;22.73;;;20.50;;
20865;SDS011;10593;48.398;10.698;2024-03-07T07:47:41;24.63;;;20.90;;
20865;SDS011;10593;48.398;10.698;2024-03-07T07:50:17;22.63;;;20.33;;
20865;SDS011;10593;48.398;10.698;2024-03-07T07:52:45;24.00;;;21.57;;
20865;SDS011;10593;48.398;10.698;2024-03-07T07:55:15;23.00;;;20.60;;
20865;SDS011;10593;48.398;10.698;2024-03-07T07:57:46;25.60;;;22.90;;
20865;SDS011;10593;48.398;10.698;2024-03-07T08:00:17;22.73;;;20.37;;
20865;SDS011;10593;48.398;10.698;2024-03-07T08:05:32;23.63;;;21.20;;
20865;SDS011;10593;48.398;10.698;2024-03-07T08:08:01;23.90;;;21.37;;
20865;SDS011;10593;48.398;10.698;2024-03-07T08:10:33;25.13;;;22.47;;
20865;SDS011;10593;48.398;10.698;2024-03-07T08:13:01;25.23;;;22.20;;
20865;SDS011;10593;48.398;10.698;2024-03-07T08:15:29;24.47;;;21.90;;
20865;SDS011;10593;48.398;10.698;2024-03-07T08:17:56;23.63;;;21.23;;
20865;SDS011;10593;48.398;10.698;2024-03-07T08:20:23;24.80;;;22.27;;
20865;SDS011;10593;48.398;10.698;2024-03-07T08:22:53;25.13;;;22.47;;
20865;SDS011;10593;48.398;10.698;2024-03-07T08:25:20;25.13;;;22.53;;
20865;SDS011;10593;48.398;10.698;2024-03-07T08:27:49;26.03;;;23.23;;
20865;SDS011;10593;48.398;10.698;2024-03-07T08:30:18;24.43;;;21.93;;
20865;SDS011;10593;48.398;10.698;2024-03-07T08:35:20;25.27;;;22.57;;
20865;SDS011;10593;48.398;10.698;2024-03-07T08:37:48;25.23;;;22.60;;
20865;SDS011;10593;48.398;10.698;2024-03-07T08:40:18;26.87;;;23.57;;
20865;SDS011;10593;48.398;10.698;2024-03-07T08:42:46;24.53;;;22.10;;
20865;SDS011;10593;48.398;10.698;2024-03-07T08:45:17;25.13;;;22.43;;
20865;SDS011;10593;48.398;10.698;2024-03-07T08:47:44;24.33;;;21.93;;
20865;SDS011;10593;48.398;10.698;2024-03-07T08:50:12;25.10;;;21.80;;
20865;SDS011;10593;48.398;10.698;2024-03-07T08:52:39;26.70;;;22.47;;
20865;SDS011;10593;48.398;10.698;2024-03-07T08:55:05;26.20;;;23.40;;
20865;SDS011;10593;48.398;10.698;2024-03-07T08:57:40;26.67;;;23.53;;
20865;SDS011;10593;48.398;10.698;2024-03-07T09:00:07;26.13;;;22.80;;
20865;SDS011;10593;48.398;10.698;2024-03-07T09:02:34;26.87;;;24.00;;
20865;SDS011;10593;48.398;10.698;2024-03-07T09:05:04;25.97;;;23.27;;
20865;SDS011;10593;48.398;10.698;2024-03-07T09:07:31;26.10;;;23.30;;
20865;SDS011;10593;48.398;10.698;2024-03-07T09:09:57;26.87;;;24.07;;
20865;SDS011;10593;48.398;10.698;2024-03-07T09:12:23;25.67;;;22.90;;
20865;SDS011;10593;48.398;10.698;2024-03-07T09:14:50;27.40;;;24.60;;
20865;SDS011;10593;48.398;10.698;2024-03-07T09:17:23;26.77;;;23.87;;
20865;SDS011;10593;48.398;10.698;2024-03-07T09:19:49;25.63;;;22.93;;
20865;SDS011;10593;48.398;10.698;2024-03-07T09:22:14;26.77;;;23.33;;
20865;SDS011;10593;48.398;10.698;2024-03-07T09:24:40;27.73;;;24.30;;
20865;SDS011;10593;48.398;10.698;2024-03-07T09:27:06;24.63;;;22.13;;
20865;SDS011;10593;48.398;10.698;2024-03-07T09:29:33;27.20;;;24.30;;
20865;SDS011;10593;48.398;10.698;2024-03-07T09:31:58;26.93;;;23.80;;
20865;SDS011;10593;48.398;10.698;2024-03-07T09:34:24;27.63;;;24.77;;
20865;SDS011;10593;48.398;10.698;2024-03-07T09:36:50;25.43;;;22.70;;
20865;SDS011;10593;48.398;10.698;2024-03-07T09:39:17;25.03;;;22.33;;
20865;SDS011;10593;48.398;10.698;2024-03-07T09:41:43;24.90;;;22.30;;
20865;SDS011;10593;48.398;10.698;2024-03-07T09:44:09;26.57;;;23.17;;
20865;SDS011;10593;48.398;10.698;2024-03-07T09:46:47;24.57;;;22.10;;
20865;SDS011;10593;48.398;10.698;2024-03-07T09:49:14;25.33;;;22.63;;
20865;SDS011;10593;48.398;10.698;2024-03-07T09:51:40;27.63;;;23.20;;
20865;SDS011;10593;48.398;10.698;2024-03-07T09:54:07;26.07;;;23.30;;
20865;SDS011;10593;48.398;10.698;2024-03-07T09:56:34;28.20;;;25.07;;
20865;SDS011;10593;48.398;10.698;2024-03-07T09:59:02;25.90;;;22.60;;
20865;SDS011;10593;48.398;10.698;2024-03-07T10:01:33;28.13;;;23.07;;
20865;SDS011;10593;48.398;10.698;2024-03-07T10:03:59;26.33;;;23.60;;
20865;SDS011;10593;48.398;10.698;2024-03-07T10:06:35;26.97;;;24.00;;
20865;SDS011;10593;48.398;10.698;2024-03-07T10:09:01;27.33;;;23.93;;
20865;SDS011;10593;48.398;10.698;2024-03-07T10:11:28;25.90;;;23.20;;
20865;SDS011;10593;48.398;10.698;2024-03-07T10:13:55;27.40;;;24.43;;
20865;SDS011;10593;48.398;10.698;2024-03-07T10:16:20;27.97;;;25.07;;
20865;SDS011;10593;48.398;10.698;2024-03-07T10:18:47;26.27;;;23.57;;
20865;SDS011;10593;48.398;10.698;2024-03-07T10:21:15;27.07;;;24.20;;
20865;SDS011;10593;48.398;10.698;2024-03-07T10:23:45;27.30;;;24.03;;
20865;SDS011;10593;48.398;10.698;2024-03-07T10:26:11;26.67;;;23.83;;
20865;SDS011;10593;48.398;10.698;2024-03-07T10:28:38;27.87;;;24.90;;
20865;SDS011;10593;48.398;10.698;2024-03-07T10:31:04;27.47;;;24.57;;
20865;SDS011;10593;48.398;10.698;2024-03-07T10:33:39;27.07;;;23.80;;
20865;SDS011;10593;48.398;10.698;2024-03-07T10:36:05;26.70;;;23.80;;
20865;SDS011;10593;48.398;10.698;2024-03-07T10:38:35;28.17;;;24.40;;
20865;SDS011;10593;48.398;10.698;2024-03-07T10:41:02;29.67;;;26.47;;
20865;SDS011;10593;48.398;10.698;2024-03-07T10:43:31;25.63;;;23.03;;
20865;SDS011;10593;48.398;10.698;2024-03-07T10:46:04;27.33;;;24.50;;
20865;SDS011;10593;48.398;10.698;2024-03-07T10:48:34;26.70;;;24.00;;
20865;SDS011;10593;48.398;10.698;2024-03-07T10:51:06;26.73;;;23.77;;
20865;SDS011;10593;48.398;10.698;2024-03-07T10:53:52;26.77;;;23.97;;
20865;SDS011;10593;48.398;10.698;2024-03-07T10:59:25;25.47;;;22.87;;
20865;SDS011;10593;48.398;10.698;2024-03-07T11:01:59;25.50;;;22.47;;
20865;SDS011;10593;48.398;10.698;2024-03-07T11:04:35;27.40;;;24.37;;
20865;SDS011;10593;48.398;10.698;2024-03-07T11:07:02;28.27;;;24.63;;
20865;SDS011;10593;48.398;10.698;2024-03-07T11:09:28;26.67;;;23.87;;
20865;SDS011;10593;48.398;10.698;2024-03-07T11:11:58;26.67;;;23.77;;
20865;SDS011;10593;48.398;10.698;2024-03-07T11:14:28;26.30;;;23.17;;
20865;SDS011;10593;48.398;10.698;2024-03-07T11:16:56;29.43;;;25.93;;
20865;SDS011;10593;48.398;10.698;2024-03-07T11:19:31;30.33;;;25.77;;
20865;SDS011;10593;48.398;10.698;2024-03-07T11:22:01;29.30;;;25.03;;
20865;SDS011;10593;48.398;10.698;2024-03-07T11:24:40;28.40;;;25.10;;
20865;SDS011;10593;48.398;10.698;2024-03-07T11:27:08;25.77;;;22.43;;
20865;SDS011;10593;48.398;10.698;2024-03-07T11:32:12;25.70;;;23.00;;
20865;SDS011;10593;48.398;10.698;2024-03-07T11:34:43;23.97;;;21.43;;
20865;SDS011;10593;48.398;10.698;2024-03-07T11:42:48;25.30;;;22.63;;
20865;SDS011;10593;48.398;10.698;2024-03-07T11:45:14;26.63;;;23.83;;
20865;SDS011;10593;48.398;10.698;2024-03-07T11:47:54;24.37;;;21.77;;
20865;SDS011;10593;48.398;10.698;2024-03-07T11:50:40;24.67;;;22.17;;
20865;SDS011;10593;48.398;10.698;2024-03-07T11:53:07;25.13;;;22.43;;
20865;SDS011;10593;48.398;10.698;2024-03-07T11:55:34;25.90;;;23.20;;
20865;SDS011;10593;48.398;10.698;2024-03-07T11:58:17;24.77;;;22.13;;
20865;SDS011;10593;48.398;10.698;2024-03-07T12:00:46;25.37;;;22.53;;
20865;SDS011;10593;48.398;10.698;2024-03-07T12:03:14;23.93;;;21.37;;
20865;SDS011;10593;48.398;10.698;2024-03-07T12:05:48;22.97;;;20.57;;
20865;SDS011;10593;48.398;10.698;2024-03-07T12:08:16;24.60;;;21.83;;
20865;SDS011;10593;48.398;10.698;2024-03-07T12:10:42;20.93;;;18.83;;
20865;SDS011;10593;48.398;10.698;2024-03-07T12:13:13;21.47;;;18.90;;
20865;SDS011;10593;48.398;10.698;2024-03-07T12:15:40;20.90;;;18.80;;
20865;SDS011;10593;48.398;10.698;2024-03-07T12:18:07;21.37;;;19.17;;
20865;SDS011;10593;48.398;10.698;2024-03-07T12:20:44;22.60;;;20.10;;
20865;SDS011;10593;48.398;10.698;2024-03-07T12:23:15;21.47;;;19.17;;
20865;SDS011;10593;48.398;10.698;2024-03-07T12:25:44;20.77;;;18.57;;
20865;SDS011;10593;48.398;10.698;2024-03-07T12:30:51;21.07;;;18.87;;
20865;SDS011;10593;48.398;10.698;2024-03-07T12:33:19;19.90;;;17.80;;
20865;SDS011;10593;48.398;10.698;2024-03-07T12:35:48;21.57;;;18.63;;
20865;SDS011;10593;48.398;10.698;2024-03-07T12:38:17;20.43;;;18.37;;
20865;SDS011;10593;48.398;10.698;2024-03-07T12:40:44;20.87;;;18.67;;
20865;SDS011;10593;48.398;10.698;2024-03-07T12:43:17;20.60;;;18.40;;
20865;SDS011;10593;48.398;10.698;2024-03-07T12:45:47;20.47;;;17.97;;
20865;SDS011;10593;48.398;10.698;2024-03-07T12:48:17;18.70;;;16.80;;
20865;SDS011;10593;48.398;10.698;2024-03-07T12:50:49;19.43;;;17.33;;
20865;SDS011;10593;48.398;10.698;2024-03-07T12:53:21;20.07;;;17.83;;
20865;SDS011;10593;48.398;10.698;2024-03-07T12:55:49;20.00;;;17.77;;
20865;SDS011;10593;48.398;10.698;2024-03-07T12:58:14;18.33;;;16.37;;
20865;SDS011;10593;48.398;10.698;2024-03-07T13:00:40;18.30;;;16.40;;
20865;SDS011;10593;48.398;10.698;2024-03-07T13:03:07;18.10;;;16.17;;
20865;SDS011;10593;48.398;10.698;2024-03-07T13:05:39;16.50;;;14.90;;
20865;SDS011;10593;48.398;10.698;2024-03-07T13:08:11;16.30;;;14.37;;
20865;SDS011;10593;48.398;10.698;2024-03-07T13:10:43;14.57;;;12.77;;
20865;SDS011;10593;48.398;10.698;2024-03-07T13:13:10;13.27;;;11.87;;
20865;SDS011;10593;48.398;10.698;2024-03-07T13:15:39;14.80;;;13.30;;
20865;SDS011;10593;48.398;10.698;2024-03-07T13:18:07;14.40;;;12.90;;
20865;SDS011;10593;48.398;10.698;2024-03-07T13:20:34;13.87;;;12.47;;
20865;SDS011;10593;48.398;10.698;2024-03-07T13:23:01;13.97;;;12.57;;
20865;SDS011;10593;48.398;10.698;2024-03-07T13:25:28;14.83;;;13.17;;
20865;SDS011;10593;48.398;10.698;2024-03-07T13:28:05;16.53;;;14.73;;
20865;SDS011;10593;48.398;10.698;2024-03-07T13:30:42;16.83;;;15.00;;
20865;SDS011;10593;48.398;10.698;2024-03-07T13:33:09;17.53;;;15.73;;
20865;SDS011;10593;48.398;10.698;2024-03-07T13:35:37;20.10;;;16.33;;
20865;SDS011;10593;48.398;10.698;2024-03-07T13:38:04;18.27;;;16.27;;
20865;SDS011;10593;48.398;10.698;2024-03-07T13:40:30;18.47;;;16.57;;
20865;SDS011;10593;48.398;10.698;2024-03-07T13:42:57;16.93;;;15.23;;
20865;SDS011;10593;48.398;10.698;2024-03-07T13:45:25;16.77;;;15.07;;
20865;SDS011;10593;48.398;10.698;2024-03-07T13:47:56;15.23;;;13.67;;
20865;SDS011;10593;48.398;10.698;2024-03-07T13:50:27;16.90;;;15.20;;
20865;SDS011;10593;48.398;10.698;2024-03-07T13:52:54;15.83;;;14.13;;
20865;SDS011;10593;48.398;10.698;2024-03-07T14:04:43;17.83;;;15.40;;
20865;SDS011;10593;48.398;10.698;2024-03-07T14:07:53;16.63;;;14.77;;
20865;SDS011;10593;48.398;10.698;2024-03-07T14:11:01;16.43;;;14.53;;
20865;SDS011;10593;48.398;10.698;2024-03-07T14:32:38;21.83;;;15.87;;
20865;SDS011;10593;48.398;10.698;2024-03-07T14:35:09;15.57;;;14.07;;
20865;SDS011;10593;48.398;10.698;2024-03-07T14:37:54;15.67;;;13.97;;
20865;SDS011;10593;48.398;10.698;2024-03-07T14:40:38;15.70;;;13.40;;
20865;SDS011;10593;48.398;10.698;2024-03-07T14:43:05;15.17;;;13.57;;
20865;SDS011;10593;48.398;10.698;2024-03-07T14:45:35;15.70;;;14.00;;
20865;SDS011;10593;48.398;10.698;2024-03-07T14:48:04;16.10;;;14.43;;
20865;SDS011;10593;48.398;10.698;2024-03-07T14:50:33;16.10;;;14.27;;
20865;SDS011;10593;48.398;10.698;2024-03-07T14:52:59;15.17;;;13.63;;
20865;SDS011;10593;48.398;10.698;2024-03-07T14:55:25;14.10;;;12.70;;
20865;SDS011;10593;48.398;10.698;2024-03-07T14:57:51;13.70;;;12.23;;
20865;SDS011;10593;48.398;10.698;2024-03-07T15:00:18;13.90;;;12.20;;
20865;SDS011;10593;48.398;10.698;2024-03-07T15:02:47;12.43;;;11.23;;
20865;SDS011;10593;48.398;10.698;2024-03-07T15:05:15;12.03;;;10.63;;
20865;SDS011;10593;48.398;10.698;2024-03-07T15:07:43;12.43;;;10.43;;